Time;durP1;ratioP1;P1;durP2;ratioP2;P2;SDS_P1;SDS_P2;PMS_P1;PMS_P2;Temp;Humidity;BMP_temperature;BMP_pressure;BME280_temperature;BME280_humidity;BME280_pressure;Samples;Min_cycle;Max_cycle;Signal;HPM_P1;HPM_P2
2021/08/28 00:05:24;;;;;;;0.00;0.00;;;;;;;;;;10234511;28;20763;-66
2021/08/28 00:10:28;;;;;;;0.00;0.00;;;;;;;;;;10228803;28;20040;-66
2021/08/28 00:15:31;;;;;;;0.00;0.00;;;;;;;;;;10232017;28;20051;-67
2021/08/28 00:20:35;;;;;;;0.00;0.00;;;;;;;;;;10230206;28;20051;-66
2021/08/28 00:25:40;;;;;;;0.00;0.00;;;;;;;;;;10220256;28;20055;-66
2021/08/28 00:30:43;;;;;;;0.00;0.00;;;;;;;;;;10222497;28;20065;-66
2021/08/28 00:35:46;;;;;;;0.00;0.00;;;;;;;;;;10228300;28;20043;-66
2021/08/28 00:40:50;;;;;;;0.00;0.00;;;;;;;;;;10231808;28;20051;-67
2021/08/28 00:45:53;;;;;;;0.00;0.00;;;;;;;;;;10227445;28;20066;-67
2021/08/28 00:50:57;;;;;;;0.00;0.00;;;;;;;;;;10251240;28;20040;-66
2021/08/28 00:56:01;;;;;;;0.00;0.00;;;;;;;;;;10237401;28;20047;-67
2021/08/28 01:01:08;;;;;;;0.00;0.00;;;;;;;;;;10271627;28;21148;-67
2021/08/28 01:06:15;;;;;;;0.05;0.05;;;;;;;;;;10250053;28;20141;-67
2021/08/28 01:11:51;;;;;;;0.00;0.00;;;;;;;;;;10234528;28;20059;-67
2021/08/28 01:16:59;;;;;;;0.00;0.00;;;;;;;;;;10250705;28;20047;-67
2021/08/28 01:22:06;;;;;;;0.10;0.10;;;;;;;;;;10235864;28;20051;-66
2021/08/28 01:27:23;;;;;;;0.00;0.00;;;;;;;;;;10218507;28;20055;-67
2021/08/28 01:32:28;;;;;;;0.00;0.00;;;;;;;;;;10220074;28;20047;-68
2021/08/28 01:37:32;;;;;;;0.00;0.00;;;;;;;;;;10227001;28;20378;-67
2021/08/28 01:42:42;;;;;;;0.10;0.10;;;;;;;;;;10227719;28;20051;-67
2021/08/28 01:47:46;;;;;;;0.00;0.00;;;;;;;;;;10221553;28;20055;-68
2021/08/28 01:52:51;;;;;;;0.25;0.00;;;;;;;;;;10224262;28;20057;-68
2021/08/28 01:57:57;;;;;;;0.10;0.10;;;;;;;;;;10224769;28;20402;-68
2021/08/28 02:03:23;;;;;;;0.00;0.00;;;;;;;;;;10258241;28;20190;-68
2021/08/28 02:08:29;;;;;;;0.00;0.00;;;;;;;;;;10243613;28;20869;-69
2021/08/28 02:13:34;;;;;;;0.00;0.00;;;;;;;;;;10221635;28;20051;-68
2021/08/28 02:18:47;;;;;;;0.00;0.00;;;;;;;;;;10225196;28;20585;-68
2021/08/28 02:24:17;;;;;;;0.00;0.00;;;;;;;;;;10210930;28;20706;-68
2021/08/28 02:29:25;;;;;;;0.00;0.00;;;;;;;;;;10215396;28;20047;-68
2021/08/28 02:34:32;;;;;;;0.00;0.00;;;;;;;;;;10213557;28;20498;-68
2021/08/28 02:39:38;;;;;;;0.00;0.00;;;;;;;;;;10222383;28;20047;-68
2021/08/28 02:44:43;;;;;;;0.00;0.00;;;;;;;;;;10248190;28;20191;-68
2021/08/28 02:49:49;;;;;;;0.00;0.00;;;;;;;;;;10279109;28;20446;-68
2021/08/28 02:55:13;;;;;;;0.00;0.00;;;;;;;;;;10240961;28;20074;-68
2021/08/28 03:00:17;;;;;;;0.00;0.00;;;;;;;;;;10247277;28;20058;-68
2021/08/28 03:05:23;;;;;;;0.00;0.00;;;;;;;;;;10226764;28;20485;-68
2021/08/28 03:10:29;;;;;;;0.00;0.00;;;;;;;;;;10219585;28;20099;-67
2021/08/28 03:15:32;;;;;;;0.03;0.03;;;;;;;;;;10218684;28;20059;-68
2021/08/28 03:20:48;;;;;;;0.00;0.00;;;;;;;;;;10217836;28;20505;-68
2021/08/28 03:25:53;;;;;;;0.08;0.08;;;;;;;;;;10221301;28;20051;-68
2021/08/28 03:30:58;;;;;;;0.00;0.00;;;;;;;;;;10220689;28;20047;-68
2021/08/28 03:36:02;;;;;;;0.00;0.00;;;;;;;;;;10210856;28;20047;-68
2021/08/28 03:41:06;;;;;;;0.00;0.00;;;;;;;;;;10245123;28;20051;-68
2021/08/28 03:46:09;;;;;;;0.00;0.00;;;;;;;;;;10244665;28;20066;-67
2021/08/28 03:51:14;;;;;;;0.10;0.10;;;;;;;;;;10222893;28;20062;-68
2021/08/28 03:56:17;;;;;;;0.00;0.00;;;;;;;;;;10220061;28;20807;-67
2021/08/28 04:01:20;;;;;;;0.00;0.00;;;;;;;;;;10237086;28;20145;-67
2021/08/28 04:06:25;;;;;;;0.00;0.00;;;;;;;;;;10234158;28;20118;-67
2021/08/28 04:11:29;;;;;;;0.00;0.00;;;;;;;;;;10258476;28;20050;-67
2021/08/28 04:16:32;;;;;;;0.00;0.00;;;;;;;;;;10213640;28;20058;-67
2021/08/28 04:21:39;;;;;;;0.00;0.00;;;;;;;;;;10250420;28;20051;-67
2021/08/28 04:26:44;;;;;;;0.00;0.00;;;;;;;;;;10208088;28;20051;-67
2021/08/28 04:31:47;;;;;;;0.10;0.10;;;;;;;;;;10212115;28;20501;-66
2021/08/28 04:36:51;;;;;;;0.00;0.00;;;;;;;;;;10210875;28;20057;-66
2021/08/28 04:41:54;;;;;;;0.00;0.00;;;;;;;;;;10211941;28;20055;-66
2021/08/28 04:46:57;;;;;;;0.00;0.00;;;;;;;;;;10214374;28;20047;-66
2021/08/28 04:52:02;;;;;;;0.00;0.00;;;;;;;;;;10220541;28;20062;-66
2021/08/28 04:57:05;;;;;;;0.10;0.10;;;;;;;;;;10251576;28;20055;-66
2021/08/28 05:02:08;;;;;;;0.10;0.10;;;;;;;;;;10213981;28;20052;-66
2021/08/28 05:07:27;;;;;;;0.00;0.00;;;;;;;;;;10214001;28;20070;-66
2021/08/28 05:12:34;;;;;;;0.00;0.00;;;;;;;;;;10248553;28;20083;-66
2021/08/28 05:17:47;;;;;;;0.10;0.10;;;;;;;;;;10217152;28;20126;-66
2021/08/28 05:22:54;;;;;;;0.00;0.00;;;;;;;;;;10221961;28;20458;-66
2021/08/28 05:28:20;;;;;;;0.08;0.08;;;;;;;;;;10205908;28;20118;-66
2021/08/28 05:33:24;;;;;;;0.00;0.00;;;;;;;;;;10214939;28;20047;-68
2021/08/28 05:38:29;;;;;;;0.00;0.00;;;;;;;;;;10216037;28;20050;-68
2021/08/28 05:43:33;;;;;;;0.00;0.00;;;;;;;;;;10226271;28;20129;-69
2021/08/28 05:48:39;;;;;;;0.00;0.00;;;;;;;;;;10231602;28;20058;-67
2021/08/28 05:53:56;;;;;;;0.08;0.08;;;;;;;;;;10214961;28;20528;-68
2021/08/28 05:58:59;;;;;;;0.00;0.00;;;;;;;;;;10241044;28;20390;-69
2021/08/28 06:04:02;;;;;;;0.00;0.00;;;;;;;;;;10217214;28;20051;-68
2021/08/28 06:09:26;;;;;;;0.00;0.00;;;;;;;;;;10231501;28;20054;-67
2021/08/28 06:15:06;;;;;;;0.00;0.00;;;;;;;;;;10222362;28;20050;-68
2021/08/28 06:20:20;;;;;;;0.00;0.00;;;;;;;;;;10246962;28;20055;-67
2021/08/28 06:25:24;;;;;;;0.05;0.05;;;;;;;;;;10248810;28;20055;-67
2021/08/28 06:30:28;;;;;;;0.00;0.00;;;;;;;;;;10217361;28;20055;-67
2021/08/28 06:35:30;;;;;;;0.00;0.00;;;;;;;;;;10223553;28;20044;-67
2021/08/28 06:40:41;;;;;;;0.00;0.00;;;;;;;;;;10219316;28;20050;-67
2021/08/28 06:46:02;;;;;;;0.00;0.00;;;;;;;;;;10232807;28;20047;-67
2021/08/28 06:51:24;;;;;;;0.00;0.00;;;;;;;;;;10232606;28;20055;-67
2021/08/28 06:56:46;;;;;;;0.00;0.00;;;;;;;;;;10232050;28;20846;-66
2021/08/28 07:02:08;;;;;;;0.00;0.00;;;;;;;;;;10231873;28;20122;-66
2021/08/28 07:07:20;;;;;;;0.00;0.00;;;;;;;;;;10220353;28;20047;-67
2021/08/28 07:12:27;;;;;;;0.00;0.00;;;;;;;;;;10219431;28;20065;-67
2021/08/28 07:17:30;;;;;;;0.00;0.00;;;;;;;;;;10219180;28;20141;-66
2021/08/28 07:22:33;;;;;;;0.00;0.00;;;;;;;;;;10236574;28;20058;-67
2021/08/28 07:27:39;;;;;;;0.00;0.00;;;;;;;;;;10226954;28;20166;-67
2021/08/28 07:33:08;;;;;;;0.00;0.00;;;;;;;;;;10231413;28;20145;-66
2021/08/28 07:38:11;;;;;;;0.00;0.00;;;;;;;;;;10215929;28;20179;-67
2021/08/28 07:43:15;;;;;;;0.00;0.00;;;;;;;;;;10223508;28;20138;-67
2021/08/28 07:48:24;;;;;;;0.00;0.00;;;;;;;;;;10231815;28;20051;-67
2021/08/28 07:53:27;;;;;;;0.00;0.00;;;;;;;;;;10222988;28;20087;-67
2021/08/28 07:58:36;;;;;;;0.00;0.00;;;;;;;;;;10210801;28;20847;-66
2021/08/28 08:03:40;;;;;;;0.00;0.00;;;;;;;;;;10217698;28;20051;-67
2021/08/28 08:09:15;;;;;;;0.00;0.00;;;;;;;;;;10228087;28;20105;-66
2021/08/28 08:14:38;;;;;;;0.00;0.00;;;;;;;;;;10228861;28;20055;-67
2021/08/28 08:19:59;;;;;;;0.00;0.00;;;;;;;;;;10233638;28;20808;-66
2021/08/28 08:25:20;;;;;;;0.00;0.00;;;;;;;;;;10235868;28;20858;-67
2021/08/28 08:31:03;;;;;;;0.00;0.00;;;;;;;;;;10229362;28;20486;-67
2021/08/28 08:36:06;;;;;;;0.00;0.00;;;;;;;;;;10215950;28;20058;-67
2021/08/28 08:41:09;;;;;;;0.00;0.00;;;;;;;;;;10230166;28;20089;-67
2021/08/28 08:46:17;;;;;;;0.00;0.00;;;;;;;;;;10215597;28;20130;-67
2021/08/28 08:51:20;;;;;;;0.00;0.00;;;;;;;;;;10241419;28;20468;-67
2021/08/28 08:56:24;;;;;;;0.00;0.00;;;;;;;;;;10239443;28;20092;-67
2021/08/28 09:01:28;;;;;;;0.00;0.00;;;;;;;;;;10218331;28;20055;-67
2021/08/28 09:06:51;;;;;;;0.00;0.00;;;;;;;;;;10232869;28;20055;-67
2021/08/28 09:11:58;;;;;;;0.00;0.00;;;;;;;;;;10242294;28;20039;-67
2021/08/28 09:17:14;;;;;;;0.00;0.00;;;;;;;;;;10236615;28;20062;-67
2021/08/28 09:22:22;;;;;;;0.00;0.00;;;;;;;;;;10241328;28;20145;-68
2021/08/28 09:27:35;;;;;;;0.00;0.00;;;;;;;;;;10239290;28;20042;-66
2021/08/28 09:32:45;;;;;;;0.00;0.00;;;;;;;;;;10255106;28;20065;-66
2021/08/28 09:37:55;;;;;;;0.00;0.00;;;;;;;;;;10272121;28;20042;-66
2021/08/28 09:43:00;;;;;;;0.00;0.00;;;;;;;;;;10272608;28;20066;-67
2021/08/28 09:48:06;;;;;;;0.00;0.00;;;;;;;;;;10273495;28;20047;-67
2021/08/28 09:53:10;;;;;;;0.00;0.00;;;;;;;;;;10273830;28;20121;-67
2021/08/28 09:58:13;;;;;;;0.00;0.00;;;;;;;;;;10271013;28;20059;-67
2021/08/28 10:03:18;;;;;;;0.00;0.00;;;;;;;;;;10272438;28;20042;-67
2021/08/28 10:08:39;;;;;;;0.00;0.00;;;;;;;;;;10271167;28;20039;-68
2021/08/28 10:13:42;;;;;;;0.00;0.00;;;;;;;;;;10268626;28;20043;-68
2021/08/28 10:18:47;;;;;;;0.00;0.00;;;;;;;;;;10253527;28;20057;-69
2021/08/28 10:23:53;;;;;;;0.00;0.00;;;;;;;;;;10270770;28;20500;-68
2021/08/28 10:29:01;;;;;;;0.00;0.00;;;;;;;;;;10270275;28;20038;-68
2021/08/28 10:34:05;;;;;;;0.00;0.00;;;;;;;;;;10269747;28;20078;-66
2021/08/28 10:39:09;;;;;;;0.00;0.00;;;;;;;;;;10270081;28;20050;-68
2021/08/28 10:44:11;;;;;;;0.00;0.00;;;;;;;;;;10266326;28;20034;-69
2021/08/28 10:49:16;;;;;;;0.00;0.00;;;;;;;;;;10251569;28;20137;-68
2021/08/28 10:54:23;;;;;;;0.00;0.00;;;;;;;;;;10254212;28;20707;-68
2021/08/28 10:59:27;;;;;;;0.00;0.00;;;;;;;;;;10268455;28;20457;-67
2021/08/28 11:04:32;;;;;;;0.00;0.00;;;;;;;;;;10250386;28;20214;-69
2021/08/28 11:09:49;;;;;;;0.00;0.00;;;;;;;;;;10269510;28;20781;-68
2021/08/28 11:14:52;;;;;;;0.00;0.00;;;;;;;;;;10249225;28;20397;-71
2021/08/28 11:19:59;;;;;;;0.00;0.00;;;;;;;;;;10265323;28;20058;-68
2021/08/28 11:25:06;;;;;;;0.00;0.00;;;;;;;;;;10268249;28;20489;-68
2021/08/28 11:30:09;;;;;;;0.00;0.00;;;;;;;;;;10269270;28;20049;-68
2021/08/28 11:35:13;;;;;;;0.00;0.00;;;;;;;;;;10252867;28;20058;-68
2021/08/28 11:40:24;;;;;;;0.00;0.00;;;;;;;;;;10268960;28;20143;-68
2021/08/28 11:45:31;;;;;;;0.00;0.00;;;;;;;;;;10266250;28;20047;-68
2021/08/28 11:50:35;;;;;;;0.00;0.00;;;;;;;;;;10250547;28;20046;-69
2021/08/28 11:55:38;;;;;;;0.00;0.00;;;;;;;;;;10268259;28;20497;-68
2021/08/28 12:00:41;;;;;;;0.00;0.00;;;;;;;;;;10269086;28;20049;-69
2021/08/28 12:05:46;;;;;;;0.00;0.00;;;;;;;;;;10267968;28;20050;-68
2021/08/28 12:10:49;;;;;;;0.00;0.00;;;;;;;;;;10270180;28;20043;-68
2021/08/28 12:15:57;;;;;;;0.00;0.00;;;;;;;;;;10267488;28;20101;-68
2021/08/28 12:21:13;;;;;;;0.00;0.00;;;;;;;;;;10269080;28;20565;-68
2021/08/28 12:26:17;;;;;;;0.00;0.00;;;;;;;;;;10265536;28;20504;-68
2021/08/28 12:31:20;;;;;;;0.00;0.00;;;;;;;;;;10253573;28;20051;-68
2021/08/28 12:36:31;;;;;;;0.00;0.00;;;;;;;;;;10275863;28;20047;-68
2021/08/28 12:41:34;;;;;;;0.00;0.00;;;;;;;;;;10277258;28;20424;-68
2021/08/28 12:46:38;;;;;;;0.00;0.00;;;;;;;;;;10275837;28;20700;-68
2021/08/28 12:51:52;;;;;;;0.00;0.00;;;;;;;;;;10279900;28;20621;-68
2021/08/28 12:56:56;;;;;;;0.00;0.00;;;;;;;;;;10272938;28;20055;-68
2021/08/28 13:01:59;;;;;;;0.00;0.00;;;;;;;;;;10273785;28;20054;-67
2021/08/28 13:07:17;;;;;;;0.00;0.00;;;;;;;;;;10273711;28;20058;-68
2021/08/28 13:12:20;;;;;;;0.00;0.00;;;;;;;;;;10275781;28;20054;-68
2021/08/28 13:17:23;;;;;;;0.00;0.00;;;;;;;;;;10271573;28;20066;-68
2021/08/28 13:22:27;;;;;;;0.00;0.00;;;;;;;;;;10278030;28;20046;-68
2021/08/28 13:27:30;;;;;;;0.00;0.00;;;;;;;;;;10279310;28;20046;-68
2021/08/28 13:32:33;;;;;;;0.00;0.00;;;;;;;;;;10273510;28;20042;-68
2021/08/28 13:37:37;;;;;;;0.00;0.00;;;;;;;;;;10273640;28;20057;-68
2021/08/28 13:42:40;;;;;;;0.00;0.00;;;;;;;;;;10272242;28;20047;-68
2021/08/28 13:47:43;;;;;;;0.00;0.00;;;;;;;;;;10273180;28;20047;-68
2021/08/28 13:52:48;;;;;;;0.00;0.00;;;;;;;;;;10260422;28;20051;-68
2021/08/28 13:57:51;;;;;;;0.00;0.00;;;;;;;;;;10274032;28;20050;-68
2021/08/28 14:02:56;;;;;;;0.00;0.00;;;;;;;;;;10272464;28;20074;-67
2021/08/28 14:08:01;;;;;;;0.00;0.00;;;;;;;;;;10253912;28;20055;-67
2021/08/28 14:13:04;;;;;;;0.00;0.00;;;;;;;;;;10270549;28;20386;-68
2021/08/28 14:18:07;;;;;;;0.00;0.00;;;;;;;;;;10270272;28;20051;-68
2021/08/28 14:23:11;;;;;;;0.00;0.00;;;;;;;;;;10270927;28;20058;-68
2021/08/28 14:28:14;;;;;;;0.00;0.00;;;;;;;;;;10270725;28;20046;-68
2021/08/28 14:33:18;;;;;;;0.00;0.00;;;;;;;;;;10271774;28;20054;-68
2021/08/28 14:38:22;;;;;;;0.00;0.00;;;;;;;;;;10272418;28;20043;-67
2021/08/28 14:43:25;;;;;;;0.00;0.00;;;;;;;;;;10264415;28;20050;-68
2021/08/28 14:48:28;;;;;;;0.00;0.00;;;;;;;;;;10269906;28;20047;-68
2021/08/28 14:53:32;;;;;;;0.00;0.00;;;;;;;;;;10271066;28;20034;-68
2021/08/28 14:58:35;;;;;;;0.00;0.00;;;;;;;;;;10270934;28;20047;-67
2021/08/28 15:03:37;;;;;;;0.00;0.00;;;;;;;;;;10270493;28;20045;-67
2021/08/28 15:08:41;;;;;;;0.00;0.00;;;;;;;;;;10270918;28;20059;-68
2021/08/28 15:13:44;;;;;;;0.00;0.00;;;;;;;;;;10270150;28;20043;-70
2021/08/28 15:18:47;;;;;;;0.00;0.00;;;;;;;;;;10266297;28;20050;-65
2021/08/28 15:23:51;;;;;;;0.00;0.00;;;;;;;;;;10268867;28;20046;-65
2021/08/28 15:28:54;;;;;;;0.00;0.00;;;;;;;;;;10266357;28;20043;-65
2021/08/28 15:33:57;;;;;;;0.00;0.00;;;;;;;;;;10268401;28;20134;-65
2021/08/28 15:39:01;;;;;;;0.00;0.00;;;;;;;;;;10269865;28;20429;-65
2021/08/28 15:44:04;;;;;;;0.00;0.00;;;;;;;;;;10268428;28;20042;-64
2021/08/28 15:49:09;;;;;;;0.00;0.00;;;;;;;;;;10263605;28;20058;-66
2021/08/28 15:54:14;;;;;;;0.00;0.00;;;;;;;;;;10267560;28;20046;-66
2021/08/28 15:59:17;;;;;;;0.00;0.00;;;;;;;;;;10267056;28;20070;-74
2021/08/28 16:04:21;;;;;;;0.00;0.00;;;;;;;;;;10251315;28;20046;-72
2021/08/28 16:09:25;;;;;;;0.00;0.00;;;;;;;;;;10250450;28;20059;-72
2021/08/28 16:14:28;;;;;;;0.00;0.00;;;;;;;;;;10266526;28;20043;-72
2021/08/28 16:19:32;;;;;;;0.00;0.00;;;;;;;;;;10268054;28;20058;-73
2021/08/28 16:24:39;;;;;;;0.00;0.00;;;;;;;;;;10265026;28;20055;-73
2021/08/28 16:29:42;;;;;;;0.00;0.00;;;;;;;;;;10247159;28;20157;-74
2021/08/28 16:34:45;;;;;;;0.00;0.00;;;;;;;;;;10267206;28;20055;-74
2021/08/28 16:39:50;;;;;;;0.00;0.00;;;;;;;;;;10267379;28;20051;-74
2021/08/28 16:44:53;;;;;;;0.00;0.00;;;;;;;;;;10266842;28;20509;-72
2021/08/28 16:49:57;;;;;;;0.00;0.00;;;;;;;;;;10264554;28;20047;-64
2021/08/28 16:55:02;;;;;;;0.00;0.00;;;;;;;;;;10276337;28;20109;-65
2021/08/28 17:00:06;;;;;;;0.00;0.00;;;;;;;;;;10279648;28;20058;-65
2021/08/28 17:05:10;;;;;;;0.00;0.00;;;;;;;;;;10273138;28;20069;-65
2021/08/28 17:10:14;;;;;;;0.00;0.00;;;;;;;;;;10267538;28;20039;-65
2021/08/28 17:15:18;;;;;;;0.00;0.00;;;;;;;;;;10267382;28;20039;-65
2021/08/28 17:20:22;;;;;;;0.00;0.00;;;;;;;;;;10273887;28;20053;-65
2021/08/28 17:25:27;;;;;;;0.00;0.00;;;;;;;;;;10275421;28;20118;-65
2021/08/28 17:30:31;;;;;;;0.00;0.00;;;;;;;;;;10271568;28;20545;-65
2021/08/28 17:35:35;;;;;;;0.00;0.00;;;;;;;;;;10272938;28;20505;-65
2021/08/28 17:40:52;;;;;;;0.00;0.00;;;;;;;;;;10272095;28;20055;-65
2021/08/28 17:45:55;;;;;;;0.00;0.00;;;;;;;;;;10272808;28;20050;-65
2021/08/28 17:50:59;;;;;;;0.00;0.00;;;;;;;;;;10256278;28;20051;-65
2021/08/28 17:56:06;;;;;;;0.00;0.00;;;;;;;;;;10272839;28;20043;-65
2021/08/28 18:01:09;;;;;;;0.00;0.00;;;;;;;;;;10254479;28;20051;-65
2021/08/28 18:06:14;;;;;;;0.00;0.00;;;;;;;;;;10271297;28;20043;-65
2021/08/28 18:11:19;;;;;;;0.00;0.00;;;;;;;;;;10269322;28;20066;-64
2021/08/28 18:16:23;;;;;;;0.00;0.00;;;;;;;;;;10270960;28;20050;-64
2021/08/28 18:21:26;;;;;;;0.00;0.00;;;;;;;;;;10270989;28;20058;-65
2021/08/28 18:26:30;;;;;;;0.00;0.00;;;;;;;;;;10251071;28;20089;-65
2021/08/28 18:31:33;;;;;;;0.00;0.00;;;;;;;;;;10266451;28;20053;-65
2021/08/28 18:36:37;;;;;;;0.00;0.00;;;;;;;;;;10270467;28;20047;-64
2021/08/28 18:41:44;;;;;;;0.00;0.00;;;;;;;;;;10282227;28;20061;-64
2021/08/28 18:46:47;;;;;;;0.00;0.00;;;;;;;;;;10280388;28;20868;-65
2021/08/28 18:51:50;;;;;;;0.00;0.00;;;;;;;;;;10271994;28;20045;-64
2021/08/28 18:56:57;;;;;;;0.00;0.00;;;;;;;;;;10290058;28;20233;-66
2021/08/28 19:02:01;;;;;;;0.00;0.00;;;;;;;;;;10284962;28;20038;-66
2021/08/28 19:07:04;;;;;;;0.00;0.00;;;;;;;;;;10290856;28;20049;-66
2021/08/28 19:12:09;;;;;;;0.00;0.00;;;;;;;;;;10283710;28;20045;-64
2021/08/28 19:17:12;;;;;;;0.00;0.00;;;;;;;;;;10281623;28;20054;-64
2021/08/28 19:22:18;;;;;;;0.00;0.00;;;;;;;;;;10281261;28;20446;-65
2021/08/28 19:27:23;;;;;;;0.00;0.00;;;;;;;;;;10266580;28;20062;-66
2021/08/28 19:32:26;;;;;;;0.00;0.00;;;;;;;;;;10270913;28;20045;-66
2021/08/28 19:37:29;;;;;;;0.00;0.00;;;;;;;;;;10252094;28;20055;-65
2021/08/28 19:42:34;;;;;;;0.00;0.00;;;;;;;;;;10271132;28;20697;-65
2021/08/28 19:47:39;;;;;;;0.00;0.00;;;;;;;;;;10273042;28;20076;-65
2021/08/28 19:52:42;;;;;;;0.00;0.00;;;;;;;;;;10274349;28;20050;-66
2021/08/28 19:57:47;;;;;;;0.00;0.00;;;;;;;;;;10271048;28;20815;-66
2021/08/28 20:02:52;;;;;;;0.00;0.00;;;;;;;;;;10270607;28;20046;-65
2021/08/28 20:07:57;;;;;;;0.00;0.00;;;;;;;;;;10273147;28;20143;-72
2021/08/28 20:13:04;;;;;;;0.00;0.00;;;;;;;;;;10267681;28;20043;-71
2021/08/28 20:18:08;;;;;;;0.00;0.00;;;;;;;;;;10269072;28;20054;-71
2021/08/28 20:23:13;;;;;;;0.00;0.00;;;;;;;;;;10251330;28;20043;-71
2021/08/28 20:28:18;;;;;;;0.00;0.00;;;;;;;;;;10271166;28;20053;-71
2021/08/28 20:33:21;;;;;;;0.00;0.00;;;;;;;;;;10268069;28;20057;-71
2021/08/28 20:38:25;;;;;;;0.00;0.00;;;;;;;;;;10266266;28;20054;-73
2021/08/28 20:43:30;;;;;;;0.00;0.00;;;;;;;;;;10268955;28;20818;-71
2021/08/28 20:48:33;;;;;;;0.00;0.00;;;;;;;;;;10267962;28;20039;-72
2021/08/28 20:53:36;;;;;;;0.00;0.00;;;;;;;;;;10274261;28;20059;-72
2021/08/28 20:58:40;;;;;;;0.00;0.00;;;;;;;;;;10277534;28;20049;-72
2021/08/28 21:03:50;;;;;;;0.00;0.00;;;;;;;;;;10275006;28;20055;-72
2021/08/28 21:08:54;;;;;;;0.00;0.00;;;;;;;;;;10275817;28;20059;-72
2021/08/28 21:13:58;;;;;;;0.00;0.00;;;;;;;;;;10275083;28;20047;-72
2021/08/28 21:19:01;;;;;;;0.00;0.00;;;;;;;;;;10276773;28;20055;-73
2021/08/28 21:24:04;;;;;;;0.00;0.00;;;;;;;;;;10277283;28;20500;-72
2021/08/28 21:29:09;;;;;;;0.00;0.00;;;;;;;;;;10259932;28;20517;-72
2021/08/28 21:34:12;;;;;;;0.00;0.00;;;;;;;;;;10273436;28;20039;-72
2021/08/28 21:39:14;;;;;;;0.00;0.00;;;;;;;;;;10276803;28;20995;-71
2021/08/28 21:44:19;;;;;;;1.13;0.82;;;;;;;;;;10272625;28;20066;-73
2021/08/28 21:49:22;;;;;;;0.40;0.38;;;;;;;;;;10277191;28;20050;-72
2021/08/28 21:54:25;;;;;;;0.10;0.10;;;;;;;;;;10276666;28;20183;-72
2021/08/28 21:59:29;;;;;;;0.03;0.03;;;;;;;;;;10275801;28;20043;-72
2021/08/28 22:04:32;;;;;;;0.10;0.10;;;;;;;;;;10255716;28;20242;-72
2021/08/28 22:09:35;;;;;;;0.20;0.15;;;;;;;;;;10275436;28;20043;-72
2021/08/28 22:14:39;;;;;;;0.00;0.00;;;;;;;;;;10272257;28;20038;-73
2021/08/28 22:19:42;;;;;;;0.30;0.20;;;;;;;;;;10275080;28;20137;-72
2021/08/28 22:24:45;;;;;;;0.00;0.00;;;;;;;;;;10275257;28;20414;-72
2021/08/28 22:29:49;;;;;;;2.10;1.00;;;;;;;;;;10285107;28;20050;-71
2021/08/28 22:34:52;;;;;;;0.13;0.10;;;;;;;;;;10280347;28;20126;-71
2021/08/28 22:39:56;;;;;;;0.00;0.00;;;;;;;;;;10274711;28;20050;-71
2021/08/28 22:45:03;;;;;;;0.00;0.00;;;;;;;;;;10272165;28;20054;-72
2021/08/28 22:50:07;;;;;;;0.00;0.00;;;;;;;;;;10269678;28;20047;-72
2021/08/28 22:55:11;;;;;;;0.00;0.00;;;;;;;;;;10273816;28;20726;-72
2021/08/28 23:00:16;;;;;;;0.00;0.00;;;;;;;;;;10273984;28;20049;-73
2021/08/28 23:05:20;;;;;;;0.00;0.00;;;;;;;;;;10267989;28;21287;-72
2021/08/28 23:10:23;;;;;;;0.00;0.00;;;;;;;;;;10273318;28;20147;-72
2021/08/28 23:15:28;;;;;;;0.00;0.00;;;;;;;;;;10271175;28;20051;-72
2021/08/28 23:20:31;;;;;;;0.00;0.00;;;;;;;;;;10268007;28;20089;-73
2021/08/28 23:25:34;;;;;;;0.00;0.00;;;;;;;;;;10272629;28;20031;-72
2021/08/28 23:30:38;;;;;;;0.00;0.00;;;;;;;;;;10273309;28;20057;-72
2021/08/28 23:35:42;;;;;;;0.00;0.00;;;;;;;;;;10256305;28;20046;-72
2021/08/28 23:40:45;;;;;;;0.00;0.00;;;;;;;;;;10274203;28;20066;-72
2021/08/28 23:45:53;;;;;;;0.00;0.00;;;;;;;;;;10271154;28;20128;-72
2021/08/28 23:50:56;;;;;;;0.00;0.00;;;;;;;;;;10273160;28;20070;-72
2021/08/28 23:55:59;;;;;;;0.10;0.08;;;;;;;;;;10271046;28;20038;-72
